sensor_id;sensor_type;location;lat;lon;timestamp;P1;durP1;ratioP1;P2;durP2;ratioP2
68455;SDS011;55437;55.046;38.838;2022-10-31T00:00:59;3.50;;;1.63;;
68455;SDS011;55437;55.046;38.838;2022-10-31T00:03:25;3.60;;;1.23;;
68455;SDS011;55437;55.046;38.838;2022-10-31T00:05:51;5.93;;;1.60;;
68455;SDS011;55437;55.046;38.838;2022-10-31T00:08:17;2.15;;;1.23;;
68455;SDS011;55437;55.046;38.838;2022-10-31T00:10:44;3.80;;;1.85;;
68455;SDS011;55437;55.046;38.838;2022-10-31T00:13:11;8.90;;;1.50;;
68455;SDS011;55437;55.046;38.838;2022-10-31T00:15:38;3.35;;;1.10;;
68455;SDS011;55437;55.046;38.838;2022-10-31T00:18:06;3.20;;;1.20;;
68455;SDS011;55437;55.046;38.838;2022-10-31T00:20:33;3.17;;;1.60;;
68455;SDS011;55437;55.046;38.838;2022-10-31T00:22:59;2.70;;;1.30;;
68455;SDS011;55437;55.046;38.838;2022-10-31T00:25:27;3.60;;;1.30;;
68455;SDS011;55437;55.046;38.838;2022-10-31T00:27:54;4.43;;;1.67;;
68455;SDS011;55437;55.046;38.838;2022-10-31T00:30:20;5.32;;;1.85;;
68455;SDS011;55437;55.046;38.838;2022-10-31T00:32:48;3.83;;;1.30;;
68455;SDS011;55437;55.046;38.838;2022-10-31T00:35:17;6.50;;;1.83;;
68455;SDS011;55437;55.046;38.838;2022-10-31T00:37:44;4.50;;;1.48;;
68455;SDS011;55437;55.046;38.838;2022-10-31T00:40:10;6.95;;;1.50;;
68455;SDS011;55437;55.046;38.838;2022-10-31T00:42:38;6.55;;;2.80;;
68455;SDS011;55437;55.046;38.838;2022-10-31T00:45:05;4.13;;;1.35;;
68455;SDS011;55437;55.046;38.838;2022-10-31T00:47:30;3.00;;;1.52;;
68455;SDS011;55437;55.046;38.838;2022-10-31T00:49:56;4.72;;;1.80;;
68455;SDS011;55437;55.046;38.838;2022-10-31T00:52:22;5.10;;;1.35;;
68455;SDS011;55437;55.046;38.838;2022-10-31T00:54:47;3.13;;;1.63;;
68455;SDS011;55437;55.046;38.838;2022-10-31T00:57:13;5.57;;;1.63;;
68455;SDS011;55437;55.046;38.838;2022-10-31T00:59:39;3.08;;;1.30;;
68455;SDS011;55437;55.046;38.838;2022-10-31T01:02:05;1.77;;;0.93;;
68455;SDS011;55437;55.046;38.838;2022-10-31T01:04:31;4.10;;;1.20;;
68455;SDS011;55437;55.046;38.838;2022-10-31T01:06:57;3.90;;;1.20;;
68455;SDS011;55437;55.046;38.838;2022-10-31T01:09:23;3.65;;;1.40;;
68455;SDS011;55437;55.046;38.838;2022-10-31T01:11:48;2.80;;;1.40;;
68455;SDS011;55437;55.046;38.838;2022-10-31T01:14:14;4.43;;;1.65;;
68455;SDS011;55437;55.046;38.838;2022-10-31T01:16:40;3.00;;;1.33;;
68455;SDS011;55437;55.046;38.838;2022-10-31T01:19:05;4.35;;;1.40;;
68455;SDS011;55437;55.046;38.838;2022-10-31T01:21:31;5.00;;;1.40;;
68455;SDS011;55437;55.046;38.838;2022-10-31T01:23:58;3.45;;;1.63;;
68455;SDS011;55437;55.046;38.838;2022-10-31T01:26:28;1.85;;;1.00;;
68455;SDS011;55437;55.046;38.838;2022-10-31T01:28:57;2.40;;;1.08;;
68455;SDS011;55437;55.046;38.838;2022-10-31T01:31:25;2.63;;;1.15;;
68455;SDS011;55437;55.046;38.838;2022-10-31T01:33:55;3.17;;;1.30;;
68455;SDS011;55437;55.046;38.838;2022-10-31T01:36:25;3.92;;;1.30;;
68455;SDS011;55437;55.046;38.838;2022-10-31T01:39:08;2.90;;;1.40;;
68455;SDS011;55437;55.046;38.838;2022-10-31T01:41:37;4.38;;;1.45;;
68455;SDS011;55437;55.046;38.838;2022-10-31T01:46:40;3.50;;;1.75;;
68455;SDS011;55437;55.046;38.838;2022-10-31T01:49:11;2.83;;;1.20;;
68455;SDS011;55437;55.046;38.838;2022-10-31T01:51:41;3.05;;;1.50;;
68455;SDS011;55437;55.046;38.838;2022-10-31T01:54:12;4.35;;;1.52;;
68455;SDS011;55437;55.046;38.838;2022-10-31T01:56:44;3.95;;;1.30;;
68455;SDS011;55437;55.046;38.838;2022-10-31T02:01:41;2.85;;;1.17;;
68455;SDS011;55437;55.046;38.838;2022-10-31T02:04:07;5.35;;;1.30;;
68455;SDS011;55437;55.046;38.838;2022-10-31T02:06:44;2.42;;;1.10;;
68455;SDS011;55437;55.046;38.838;2022-10-31T02:09:15;4.38;;;1.42;;
68455;SDS011;55437;55.046;38.838;2022-10-31T02:11:42;6.03;;;1.70;;
68455;SDS011;55437;55.046;38.838;2022-10-31T02:14:10;3.83;;;1.52;;
68455;SDS011;55437;55.046;38.838;2022-10-31T02:16:37;4.03;;;1.30;;
68455;SDS011;55437;55.046;38.838;2022-10-31T02:19:03;4.80;;;1.63;;
68455;SDS011;55437;55.046;38.838;2022-10-31T02:21:38;3.97;;;1.45;;
68455;SDS011;55437;55.046;38.838;2022-10-31T02:24:29;4.18;;;1.50;;
68455;SDS011;55437;55.046;38.838;2022-10-31T02:30:15;3.53;;;1.02;;
68455;SDS011;55437;55.046;38.838;2022-10-31T02:33:06;3.90;;;1.40;;
68455;SDS011;55437;55.046;38.838;2022-10-31T02:36:09;4.15;;;1.50;;
68455;SDS011;55437;55.046;38.838;2022-10-31T02:41:37;4.07;;;1.52;;
68455;SDS011;55437;55.046;38.838;2022-10-31T02:44:36;3.72;;;1.25;;
68455;SDS011;55437;55.046;38.838;2022-10-31T02:47:05;5.05;;;1.75;;
68455;SDS011;55437;55.046;38.838;2022-10-31T02:49:50;3.40;;;1.08;;
68455;SDS011;55437;55.046;38.838;2022-10-31T02:52:20;2.13;;;1.02;;
68455;SDS011;55437;55.046;38.838;2022-10-31T02:54:50;3.03;;;1.35;;
68455;SDS011;55437;55.046;38.838;2022-10-31T02:57:17;4.35;;;1.40;;
68455;SDS011;55437;55.046;38.838;2022-10-31T02:59:48;5.88;;;1.40;;
68455;SDS011;55437;55.046;38.838;2022-10-31T03:15:56;3.97;;;1.42;;
68455;SDS011;55437;55.046;38.838;2022-10-31T03:18:43;2.90;;;1.33;;
68455;SDS011;55437;55.046;38.838;2022-10-31T03:21:21;3.47;;;1.27;;
68455;SDS011;55437;55.046;38.838;2022-10-31T03:24:01;3.60;;;1.38;;
68455;SDS011;55437;55.046;38.838;2022-10-31T03:26:28;3.10;;;1.45;;
68455;SDS011;55437;55.046;38.838;2022-10-31T03:29:00;2.83;;;1.35;;
68455;SDS011;55437;55.046;38.838;2022-10-31T03:31:30;3.33;;;1.30;;
68455;SDS011;55437;55.046;38.838;2022-10-31T03:34:01;3.75;;;1.52;;
68455;SDS011;55437;55.046;38.838;2022-10-31T03:36:32;6.28;;;1.80;;
68455;SDS011;55437;55.046;38.838;2022-10-31T03:39:01;6.68;;;1.40;;
68455;SDS011;55437;55.046;38.838;2022-10-31T03:41:31;3.35;;;1.45;;
68455;SDS011;55437;55.046;38.838;2022-10-31T03:44:17;5.28;;;1.30;;
68455;SDS011;55437;55.046;38.838;2022-10-31T03:46:53;3.33;;;1.20;;
68455;SDS011;55437;55.046;38.838;2022-10-31T03:49:20;3.97;;;1.30;;
68455;SDS011;55437;55.046;38.838;2022-10-31T03:54:31;3.15;;;1.23;;
68455;SDS011;55437;55.046;38.838;2022-10-31T03:57:17;3.72;;;1.50;;
68455;SDS011;55437;55.046;38.838;2022-10-31T03:59:54;3.78;;;1.63;;
68455;SDS011;55437;55.046;38.838;2022-10-31T04:02:45;4.03;;;1.17;;
68455;SDS011;55437;55.046;38.838;2022-10-31T04:05:36;2.92;;;1.38;;
68455;SDS011;55437;55.046;38.838;2022-10-31T04:08:04;5.15;;;1.33;;
68455;SDS011;55437;55.046;38.838;2022-10-31T04:10:34;5.35;;;2.15;;
68455;SDS011;55437;55.046;38.838;2022-10-31T04:13:05;3.75;;;1.30;;
68455;SDS011;55437;55.046;38.838;2022-10-31T04:15:47;3.63;;;1.30;;
68455;SDS011;55437;55.046;38.838;2022-10-31T04:18:19;3.55;;;1.15;;
68455;SDS011;55437;55.046;38.838;2022-10-31T04:20:47;4.30;;;1.60;;
68455;SDS011;55437;55.046;38.838;2022-10-31T04:23:20;4.57;;;1.67;;
68455;SDS011;55437;55.046;38.838;2022-10-31T04:25:49;5.43;;;1.83;;
68455;SDS011;55437;55.046;38.838;2022-10-31T04:28:16;4.70;;;1.67;;
68455;SDS011;55437;55.046;38.838;2022-10-31T04:30:42;5.68;;;1.80;;
68455;SDS011;55437;55.046;38.838;2022-10-31T04:33:08;4.97;;;1.65;;
68455;SDS011;55437;55.046;38.838;2022-10-31T04:35:34;5.25;;;1.83;;
68455;SDS011;55437;55.046;38.838;2022-10-31T04:38:00;4.28;;;1.83;;
68455;SDS011;55437;55.046;38.838;2022-10-31T04:40:26;5.22;;;1.30;;
68455;SDS011;55437;55.046;38.838;2022-10-31T04:43:11;5.30;;;1.70;;
68455;SDS011;55437;55.046;38.838;2022-10-31T04:45:38;2.53;;;1.20;;
68455;SDS011;55437;55.046;38.838;2022-10-31T04:48:04;4.93;;;1.88;;
68455;SDS011;55437;55.046;38.838;2022-10-31T04:50:32;4.93;;;1.90;;
68455;SDS011;55437;55.046;38.838;2022-10-31T04:52:59;3.88;;;1.63;;
68455;SDS011;55437;55.046;38.838;2022-10-31T04:55:26;3.25;;;1.23;;
68455;SDS011;55437;55.046;38.838;2022-10-31T04:58:15;6.35;;;1.98;;
68455;SDS011;55437;55.046;38.838;2022-10-31T05:00:42;4.75;;;1.48;;
68455;SDS011;55437;55.046;38.838;2022-10-31T05:03:08;4.55;;;1.75;;
68455;SDS011;55437;55.046;38.838;2022-10-31T05:05:34;4.57;;;1.50;;
68455;SDS011;55437;55.046;38.838;2022-10-31T05:08:02;4.72;;;1.40;;
68455;SDS011;55437;55.046;38.838;2022-10-31T05:10:29;5.00;;;1.42;;
68455;SDS011;55437;55.046;38.838;2022-10-31T05:12:59;4.38;;;2.30;;
68455;SDS011;55437;55.046;38.838;2022-10-31T05:15:44;6.35;;;1.50;;
68455;SDS011;55437;55.046;38.838;2022-10-31T05:18:33;4.13;;;1.58;;
68455;SDS011;55437;55.046;38.838;2022-10-31T05:21:17;6.57;;;1.70;;
68455;SDS011;55437;55.046;38.838;2022-10-31T05:23:56;4.93;;;1.83;;
68455;SDS011;55437;55.046;38.838;2022-10-31T05:26:23;4.30;;;1.60;;
68455;SDS011;55437;55.046;38.838;2022-10-31T05:28:50;4.22;;;1.58;;
68455;SDS011;55437;55.046;38.838;2022-10-31T05:31:15;5.93;;;2.17;;
68455;SDS011;55437;55.046;38.838;2022-10-31T05:33:41;3.47;;;1.50;;
68455;SDS011;55437;55.046;38.838;2022-10-31T05:36:18;4.47;;;1.60;;
68455;SDS011;55437;55.046;38.838;2022-10-31T05:38:52;5.60;;;1.73;;
68455;SDS011;55437;55.046;38.838;2022-10-31T05:41:24;4.85;;;1.70;;
68455;SDS011;55437;55.046;38.838;2022-10-31T05:43:51;5.18;;;1.50;;
68455;SDS011;55437;55.046;38.838;2022-10-31T05:46:22;4.65;;;1.70;;
68455;SDS011;55437;55.046;38.838;2022-10-31T05:49:07;5.40;;;1.70;;
68455;SDS011;55437;55.046;38.838;2022-10-31T05:51:51;5.88;;;2.33;;
68455;SDS011;55437;55.046;38.838;2022-10-31T05:54:19;4.35;;;1.92;;
68455;SDS011;55437;55.046;38.838;2022-10-31T05:56:45;6.72;;;1.77;;
68455;SDS011;55437;55.046;38.838;2022-10-31T05:59:11;5.40;;;1.90;;
68455;SDS011;55437;55.046;38.838;2022-10-31T06:01:38;6.25;;;2.13;;
68455;SDS011;55437;55.046;38.838;2022-10-31T06:04:11;7.35;;;2.05;;
68455;SDS011;55437;55.046;38.838;2022-10-31T06:06:37;6.80;;;2.05;;
68455;SDS011;55437;55.046;38.838;2022-10-31T06:09:03;6.88;;;1.90;;
68455;SDS011;55437;55.046;38.838;2022-10-31T06:11:32;5.13;;;1.40;;
68455;SDS011;55437;55.046;38.838;2022-10-31T06:14:00;6.53;;;2.15;;
68455;SDS011;55437;55.046;38.838;2022-10-31T06:16:49;5.53;;;1.77;;
68455;SDS011;55437;55.046;38.838;2022-10-31T06:19:35;5.40;;;1.77;;
68455;SDS011;55437;55.046;38.838;2022-10-31T06:22:00;4.07;;;1.45;;
68455;SDS011;55437;55.046;38.838;2022-10-31T06:24:27;4.70;;;1.85;;
68455;SDS011;55437;55.046;38.838;2022-10-31T06:26:53;5.85;;;1.92;;
68455;SDS011;55437;55.046;38.838;2022-10-31T06:29:20;6.07;;;1.67;;
68455;SDS011;55437;55.046;38.838;2022-10-31T06:32:18;6.97;;;1.77;;
68455;SDS011;55437;55.046;38.838;2022-10-31T06:34:45;6.68;;;1.92;;
68455;SDS011;55437;55.046;38.838;2022-10-31T06:37:13;7.45;;;2.10;;
68455;SDS011;55437;55.046;38.838;2022-10-31T06:39:43;4.43;;;1.77;;
68455;SDS011;55437;55.046;38.838;2022-10-31T06:42:10;7.22;;;2.22;;
68455;SDS011;55437;55.046;38.838;2022-10-31T06:44:36;4.65;;;1.60;;
68455;SDS011;55437;55.046;38.838;2022-10-31T06:47:20;5.88;;;1.95;;
68455;SDS011;55437;55.046;38.838;2022-10-31T06:49:58;9.32;;;1.88;;
68455;SDS011;55437;55.046;38.838;2022-10-31T06:52:27;5.97;;;2.30;;
68455;SDS011;55437;55.046;38.838;2022-10-31T06:54:53;5.25;;;1.73;;
68455;SDS011;55437;55.046;38.838;2022-10-31T06:57:20;4.65;;;1.77;;
68455;SDS011;55437;55.046;38.838;2022-10-31T06:59:45;4.90;;;1.70;;
68455;SDS011;55437;55.046;38.838;2022-10-31T07:02:11;4.53;;;1.88;;
68455;SDS011;55437;55.046;38.838;2022-10-31T07:04:40;6.50;;;1.83;;
68455;SDS011;55437;55.046;38.838;2022-10-31T07:07:06;5.38;;;1.60;;
68455;SDS011;55437;55.046;38.838;2022-10-31T07:09:33;8.07;;;1.77;;
68455;SDS011;55437;55.046;38.838;2022-10-31T07:12:02;4.13;;;1.60;;
68455;SDS011;55437;55.046;38.838;2022-10-31T07:14:29;5.13;;;1.73;;
68455;SDS011;55437;55.046;38.838;2022-10-31T07:16:55;4.80;;;1.58;;
68455;SDS011;55437;55.046;38.838;2022-10-31T07:19:25;7.55;;;2.00;;
68455;SDS011;55437;55.046;38.838;2022-10-31T07:21:51;5.15;;;2.10;;
68455;SDS011;55437;55.046;38.838;2022-10-31T07:24:18;6.60;;;2.25;;
68455;SDS011;55437;55.046;38.838;2022-10-31T07:26:45;6.63;;;1.88;;
68455;SDS011;55437;55.046;38.838;2022-10-31T07:29:13;7.45;;;2.28;;
68455;SDS011;55437;55.046;38.838;2022-10-31T07:31:39;6.18;;;2.17;;
68455;SDS011;55437;55.046;38.838;2022-10-31T07:34:12;6.88;;;2.72;;
68455;SDS011;55437;55.046;38.838;2022-10-31T07:36:56;6.78;;;2.70;;
68455;SDS011;55437;55.046;38.838;2022-10-31T07:39:21;7.53;;;2.20;;
68455;SDS011;55437;55.046;38.838;2022-10-31T07:41:47;7.43;;;2.60;;
68455;SDS011;55437;55.046;38.838;2022-10-31T07:44:17;9.30;;;2.55;;
68455;SDS011;55437;55.046;38.838;2022-10-31T07:47:01;7.57;;;2.15;;
68455;SDS011;55437;55.046;38.838;2022-10-31T07:49:45;10.05;;;3.20;;
68455;SDS011;55437;55.046;38.838;2022-10-31T07:52:23;11.68;;;3.10;;
68455;SDS011;55437;55.046;38.838;2022-10-31T07:55:09;6.95;;;2.45;;
68455;SDS011;55437;55.046;38.838;2022-10-31T07:57:35;5.82;;;2.45;;
68455;SDS011;55437;55.046;38.838;2022-10-31T08:00:05;7.65;;;3.35;;
68455;SDS011;55437;55.046;38.838;2022-10-31T08:02:40;6.40;;;2.35;;
68455;SDS011;55437;55.046;38.838;2022-10-31T08:05:38;5.22;;;2.22;;
68455;SDS011;55437;55.046;38.838;2022-10-31T08:08:25;7.15;;;2.22;;
68455;SDS011;55437;55.046;38.838;2022-10-31T08:10:53;5.97;;;2.20;;
68455;SDS011;55437;55.046;38.838;2022-10-31T08:13:20;5.65;;;2.30;;
68455;SDS011;55437;55.046;38.838;2022-10-31T08:15:49;7.40;;;2.40;;
68455;SDS011;55437;55.046;38.838;2022-10-31T08:18:20;7.00;;;2.53;;
68455;SDS011;55437;55.046;38.838;2022-10-31T08:20:47;6.93;;;2.72;;
68455;SDS011;55437;55.046;38.838;2022-10-31T08:23:13;7.45;;;2.70;;
68455;SDS011;55437;55.046;38.838;2022-10-31T08:25:41;5.80;;;2.00;;
68455;SDS011;55437;55.046;38.838;2022-10-31T08:28:08;12.20;;;2.55;;
68455;SDS011;55437;55.046;38.838;2022-10-31T08:30:36;11.70;;;2.72;;
68455;SDS011;55437;55.046;38.838;2022-10-31T08:33:29;7.20;;;2.90;;
68455;SDS011;55437;55.046;38.838;2022-10-31T08:36:20;7.47;;;2.38;;
68455;SDS011;55437;55.046;38.838;2022-10-31T08:39:10;6.55;;;2.17;;
68455;SDS011;55437;55.046;38.838;2022-10-31T08:41:37;6.75;;;2.33;;
68455;SDS011;55437;55.046;38.838;2022-10-31T08:44:08;6.38;;;1.95;;
68455;SDS011;55437;55.046;38.838;2022-10-31T08:46:34;7.57;;;2.65;;
68455;SDS011;55437;55.046;38.838;2022-10-31T08:49:01;5.60;;;2.10;;
68455;SDS011;55437;55.046;38.838;2022-10-31T08:51:27;5.43;;;1.98;;
68455;SDS011;55437;55.046;38.838;2022-10-31T08:53:54;6.53;;;2.22;;
68455;SDS011;55437;55.046;38.838;2022-10-31T08:56:32;8.35;;;2.50;;
68455;SDS011;55437;55.046;38.838;2022-10-31T08:58:59;6.30;;;2.20;;
68455;SDS011;55437;55.046;38.838;2022-10-31T09:01:44;5.97;;;2.28;;
68455;SDS011;55437;55.046;38.838;2022-10-31T09:04:13;6.53;;;2.60;;
68455;SDS011;55437;55.046;38.838;2022-10-31T09:06:39;5.45;;;2.08;;
68455;SDS011;55437;55.046;38.838;2022-10-31T09:09:04;5.90;;;2.03;;
68455;SDS011;55437;55.046;38.838;2022-10-31T09:11:30;5.38;;;2.00;;
68455;SDS011;55437;55.046;38.838;2022-10-31T09:14:17;6.70;;;2.10;;
68455;SDS011;55437;55.046;38.838;2022-10-31T09:17:01;7.47;;;1.88;;
68455;SDS011;55437;55.046;38.838;2022-10-31T09:19:43;6.43;;;1.90;;
68455;SDS011;55437;55.046;38.838;2022-10-31T09:22:09;6.78;;;2.33;;
68455;SDS011;55437;55.046;38.838;2022-10-31T09:24:35;6.40;;;2.30;;
68455;SDS011;55437;55.046;38.838;2022-10-31T09:27:01;6.05;;;1.92;;
68455;SDS011;55437;55.046;38.838;2022-10-31T09:29:26;6.63;;;2.17;;
68455;SDS011;55437;55.046;38.838;2022-10-31T09:31:56;4.68;;;1.80;;
68455;SDS011;55437;55.046;38.838;2022-10-31T09:34:27;5.18;;;1.80;;
68455;SDS011;55437;55.046;38.838;2022-10-31T09:37:10;7.78;;;2.00;;
68455;SDS011;55437;55.046;38.838;2022-10-31T09:39:35;6.22;;;2.10;;
68455;SDS011;55437;55.046;38.838;2022-10-31T09:51:04;4.40;;;1.70;;
68455;SDS011;55437;55.046;38.838;2022-10-31T09:53:54;5.25;;;2.05;;
68455;SDS011;55437;55.046;38.838;2022-10-31T09:56:23;5.28;;;1.95;;
68455;SDS011;55437;55.046;38.838;2022-10-31T09:58:55;4.90;;;1.90;;
68455;SDS011;55437;55.046;38.838;2022-10-31T10:04:29;7.68;;;2.85;;
68455;SDS011;55437;55.046;38.838;2022-10-31T10:07:30;5.40;;;2.10;;
68455;SDS011;55437;55.046;38.838;2022-10-31T10:10:37;9.75;;;2.47;;
68455;SDS011;55437;55.046;38.838;2022-10-31T10:24:39;5.43;;;2.15;;
68455;SDS011;55437;55.046;38.838;2022-10-31T10:30:18;7.38;;;2.58;;
68455;SDS011;55437;55.046;38.838;2022-10-31T10:35:26;8.05;;;2.40;;
68455;SDS011;55437;55.046;38.838;2022-10-31T10:40:52;6.47;;;2.15;;
68455;SDS011;55437;55.046;38.838;2022-10-31T10:46:17;6.70;;;2.40;;
68455;SDS011;55437;55.046;38.838;2022-10-31T11:00:35;8.93;;;2.45;;
68455;SDS011;55437;55.046;38.838;2022-10-31T11:03:04;5.72;;;1.80;;
68455;SDS011;55437;55.046;38.838;2022-10-31T11:05:35;5.03;;;2.05;;
68455;SDS011;55437;55.046;38.838;2022-10-31T11:08:06;4.82;;;2.05;;
68455;SDS011;55437;55.046;38.838;2022-10-31T11:10:33;5.10;;;1.67;;
68455;SDS011;55437;55.046;38.838;2022-10-31T11:15:49;3.75;;;1.40;;
68455;SDS011;55437;55.046;38.838;2022-10-31T11:18:19;4.60;;;1.80;;
68455;SDS011;55437;55.046;38.838;2022-10-31T11:20:57;4.72;;;1.48;;
68455;SDS011;55437;55.046;38.838;2022-10-31T11:23:26;5.68;;;1.85;;
68455;SDS011;55437;55.046;38.838;2022-10-31T11:26:00;5.65;;;2.15;;
68455;SDS011;55437;55.046;38.838;2022-10-31T11:28:27;5.88;;;1.90;;
68455;SDS011;55437;55.046;38.838;2022-10-31T11:31:10;4.72;;;1.85;;
68455;SDS011;55437;55.046;38.838;2022-10-31T11:33:40;7.88;;;1.85;;
68455;SDS011;55437;55.046;38.838;2022-10-31T11:39:22;6.75;;;2.08;;
68455;SDS011;55437;55.046;38.838;2022-10-31T11:41:50;7.25;;;2.17;;
68455;SDS011;55437;55.046;38.838;2022-10-31T11:44:18;6.50;;;2.00;;
68455;SDS011;55437;55.046;38.838;2022-10-31T11:46:51;5.03;;;1.77;;
68455;SDS011;55437;55.046;38.838;2022-10-31T11:52:08;7.13;;;2.35;;
68455;SDS011;55437;55.046;38.838;2022-10-31T11:58:00;6.53;;;2.60;;
68455;SDS011;55437;55.046;38.838;2022-10-31T12:03:04;6.55;;;2.53;;
68455;SDS011;55437;55.046;38.838;2022-10-31T12:05:36;6.72;;;2.42;;
68455;SDS011;55437;55.046;38.838;2022-10-31T12:08:06;8.13;;;2.30;;
68455;SDS011;55437;55.046;38.838;2022-10-31T12:24:33;7.57;;;2.65;;
68455;SDS011;55437;55.046;38.838;2022-10-31T12:27:17;7.57;;;2.55;;
68455;SDS011;55437;55.046;38.838;2022-10-31T12:30:46;6.15;;;2.33;;
68455;SDS011;55437;55.046;38.838;2022-10-31T12:57:54;7.95;;;2.25;;
68455;SDS011;55437;55.046;38.838;2022-10-31T13:00:34;6.28;;;2.22;;
68455;SDS011;55437;55.046;38.838;2022-10-31T13:03:09;6.88;;;2.10;;
68455;SDS011;55437;55.046;38.838;2022-10-31T13:05:40;6.53;;;2.25;;
68455;SDS011;55437;55.046;38.838;2022-10-31T13:08:14;7.15;;;1.90;;
68455;SDS011;55437;55.046;38.838;2022-10-31T13:10:44;6.63;;;2.22;;
68455;SDS011;55437;55.046;38.838;2022-10-31T13:18:46;5.13;;;1.95;;
68455;SDS011;55437;55.046;38.838;2022-10-31T13:21:25;6.43;;;2.42;;
68455;SDS011;55437;55.046;38.838;2022-10-31T13:23:55;6.28;;;2.38;;
68455;SDS011;55437;55.046;38.838;2022-10-31T13:26:42;6.35;;;2.60;;
68455;SDS011;55437;55.046;38.838;2022-10-31T13:31:48;6.30;;;2.58;;
68455;SDS011;55437;55.046;38.838;2022-10-31T13:34:39;7.15;;;2.15;;
68455;SDS011;55437;55.046;38.838;2022-10-31T13:47:40;5.88;;;2.33;;
68455;SDS011;55437;55.046;38.838;2022-10-31T13:52:47;5.80;;;2.08;;
68455;SDS011;55437;55.046;38.838;2022-10-31T13:55:34;5.53;;;2.38;;
68455;SDS011;55437;55.046;38.838;2022-10-31T13:58:19;5.57;;;2.45;;
68455;SDS011;55437;55.046;38.838;2022-10-31T14:01:21;6.32;;;2.30;;
68455;SDS011;55437;55.046;38.838;2022-10-31T14:15:04;6.43;;;2.38;;
68455;SDS011;55437;55.046;38.838;2022-10-31T14:18:02;7.75;;;2.78;;
68455;SDS011;55437;55.046;38.838;2022-10-31T14:20:32;7.30;;;3.42;;
68455;SDS011;55437;55.046;38.838;2022-10-31T14:28:51;6.45;;;2.35;;
68455;SDS011;55437;55.046;38.838;2022-10-31T14:31:36;6.78;;;2.65;;
68455;SDS011;55437;55.046;38.838;2022-10-31T14:34:34;6.75;;;2.20;;
68455;SDS011;55437;55.046;38.838;2022-10-31T14:50:57;8.07;;;2.95;;
68455;SDS011;55437;55.046;38.838;2022-10-31T14:53:34;7.38;;;3.13;;
68455;SDS011;55437;55.046;38.838;2022-10-31T14:56:11;7.93;;;2.85;;
68455;SDS011;55437;55.046;38.838;2022-10-31T14:58:46;9.07;;;2.90;;
68455;SDS011;55437;55.046;38.838;2022-10-31T15:01:33;8.07;;;3.22;;
68455;SDS011;55437;55.046;38.838;2022-10-31T15:06:52;8.52;;;3.63;;
68455;SDS011;55437;55.046;38.838;2022-10-31T15:09:30;9.95;;;4.15;;
68455;SDS011;55437;55.046;38.838;2022-10-31T15:11:58;8.43;;;3.90;;
68455;SDS011;55437;55.046;38.838;2022-10-31T15:14:26;8.18;;;3.65;;
68455;SDS011;55437;55.046;38.838;2022-10-31T15:16:55;8.95;;;4.05;;
68455;SDS011;55437;55.046;38.838;2022-10-31T15:19:23;10.98;;;3.72;;
68455;SDS011;55437;55.046;38.838;2022-10-31T15:21:51;8.98;;;4.43;;
68455;SDS011;55437;55.046;38.838;2022-10-31T15:24:19;8.70;;;3.05;;
68455;SDS011;55437;55.046;38.838;2022-10-31T15:26:49;8.43;;;3.05;;
68455;SDS011;55437;55.046;38.838;2022-10-31T15:29:18;7.93;;;3.08;;
68455;SDS011;55437;55.046;38.838;2022-10-31T15:34:33;8.32;;;3.33;;
68455;SDS011;55437;55.046;38.838;2022-10-31T15:37:38;7.68;;;3.78;;
68455;SDS011;55437;55.046;38.838;2022-10-31T15:40:05;8.18;;;3.80;;
68455;SDS011;55437;55.046;38.838;2022-10-31T15:42:34;8.45;;;4.15;;
68455;SDS011;55437;55.046;38.838;2022-10-31T15:45:15;8.73;;;3.42;;
68455;SDS011;55437;55.046;38.838;2022-10-31T15:47:45;8.02;;;3.08;;
68455;SDS011;55437;55.046;38.838;2022-10-31T15:50:19;7.20;;;3.10;;
68455;SDS011;55437;55.046;38.838;2022-10-31T15:52:49;7.15;;;2.60;;
68455;SDS011;55437;55.046;38.838;2022-10-31T15:55:19;6.60;;;2.47;;
68455;SDS011;55437;55.046;38.838;2022-10-31T15:57:58;7.72;;;2.90;;
68455;SDS011;55437;55.046;38.838;2022-10-31T16:00:29;5.70;;;2.10;;
68455;SDS011;55437;55.046;38.838;2022-10-31T16:05:45;6.22;;;2.33;;
68455;SDS011;55437;55.046;38.838;2022-10-31T16:10:59;5.60;;;2.13;;
68455;SDS011;55437;55.046;38.838;2022-10-31T16:13:35;6.70;;;2.30;;
68455;SDS011;55437;55.046;38.838;2022-10-31T16:16:13;5.90;;;2.30;;
68455;SDS011;55437;55.046;38.838;2022-10-31T16:18:41;6.38;;;2.22;;
68455;SDS011;55437;55.046;38.838;2022-10-31T16:21:08;6.05;;;2.25;;
68455;SDS011;55437;55.046;38.838;2022-10-31T16:23:35;8.13;;;2.35;;
68455;SDS011;55437;55.046;38.838;2022-10-31T16:26:07;7.40;;;1.98;;
68455;SDS011;55437;55.046;38.838;2022-10-31T16:30:59;5.93;;;2.00;;
68455;SDS011;55437;55.046;38.838;2022-10-31T16:33:29;7.05;;;2.63;;
68455;SDS011;55437;55.046;38.838;2022-10-31T16:38:45;6.80;;;1.70;;
68455;SDS011;55437;55.046;38.838;2022-10-31T16:41:11;7.15;;;2.67;;
68455;SDS011;55437;55.046;38.838;2022-10-31T16:43:37;5.55;;;2.15;;
68455;SDS011;55437;55.046;38.838;2022-10-31T16:46:03;5.13;;;1.83;;
68455;SDS011;55437;55.046;38.838;2022-10-31T16:48:29;6.90;;;2.13;;
68455;SDS011;55437;55.046;38.838;2022-10-31T16:50:54;6.57;;;2.28;;
68455;SDS011;55437;55.046;38.838;2022-10-31T16:53:20;6.68;;;2.30;;
68455;SDS011;55437;55.046;38.838;2022-10-31T16:55:48;7.00;;;2.17;;
68455;SDS011;55437;55.046;38.838;2022-10-31T16:58:23;6.55;;;2.05;;
68455;SDS011;55437;55.046;38.838;2022-10-31T17:00:51;6.80;;;2.03;;
68455;SDS011;55437;55.046;38.838;2022-10-31T17:03:18;6.63;;;2.60;;
68455;SDS011;55437;55.046;38.838;2022-10-31T17:05:45;7.20;;;2.53;;
68455;SDS011;55437;55.046;38.838;2022-10-31T17:08:11;9.13;;;2.90;;
68455;SDS011;55437;55.046;38.838;2022-10-31T17:10:38;5.15;;;1.88;;
68455;SDS011;55437;55.046;38.838;2022-10-31T17:13:05;5.75;;;2.30;;
68455;SDS011;55437;55.046;38.838;2022-10-31T17:15:40;5.47;;;2.03;;
68455;SDS011;55437;55.046;38.838;2022-10-31T17:18:12;7.68;;;2.58;;
68455;SDS011;55437;55.046;38.838;2022-10-31T17:20:39;8.13;;;2.45;;
68455;SDS011;55437;55.046;38.838;2022-10-31T17:23:06;6.35;;;2.67;;
68455;SDS011;55437;55.046;38.838;2022-10-31T17:25:33;8.75;;;2.53;;
68455;SDS011;55437;55.046;38.838;2022-10-31T17:28:00;6.82;;;3.00;;
68455;SDS011;55437;55.046;38.838;2022-10-31T17:30:26;6.97;;;2.55;;
68455;SDS011;55437;55.046;38.838;2022-10-31T17:32:52;5.20;;;2.20;;
68455;SDS011;55437;55.046;38.838;2022-10-31T17:35:19;8.52;;;3.67;;
68455;SDS011;55437;55.046;38.838;2022-10-31T17:37:46;5.05;;;1.90;;
68455;SDS011;55437;55.046;38.838;2022-10-31T17:40:16;6.35;;;2.42;;
68455;SDS011;55437;55.046;38.838;2022-10-31T17:42:50;5.72;;;2.40;;
68455;SDS011;55437;55.046;38.838;2022-10-31T17:45:17;8.05;;;2.40;;
68455;SDS011;55437;55.046;38.838;2022-10-31T17:47:48;6.15;;;2.00;;
68455;SDS011;55437;55.046;38.838;2022-10-31T17:50:15;5.63;;;1.85;;
68455;SDS011;55437;55.046;38.838;2022-10-31T17:52:43;6.60;;;2.20;;
68455;SDS011;55437;55.046;38.838;2022-10-31T17:55:09;7.47;;;2.35;;
68455;SDS011;55437;55.046;38.838;2022-10-31T17:57:36;5.50;;;2.00;;
68455;SDS011;55437;55.046;38.838;2022-10-31T18:00:03;6.15;;;2.58;;
68455;SDS011;55437;55.046;38.838;2022-10-31T18:02:32;5.78;;;1.90;;
68455;SDS011;55437;55.046;38.838;2022-10-31T18:04:58;5.50;;;1.70;;
68455;SDS011;55437;55.046;38.838;2022-10-31T18:07:28;6.13;;;1.63;;
68455;SDS011;55437;55.046;38.838;2022-10-31T18:09:54;4.82;;;1.83;;
68455;SDS011;55437;55.046;38.838;2022-10-31T18:12:20;5.22;;;2.08;;
68455;SDS011;55437;55.046;38.838;2022-10-31T18:14:46;13.55;;;4.00;;
68455;SDS011;55437;55.046;38.838;2022-10-31T18:17:12;5.78;;;2.22;;